sensor_id;sensor_type;location;lat;lon;timestamp;pressure;altitude;pressure_sealevel;temperature;humidity
6024;BME280;3040;42.654;23.296;2022-11-15T00:00:32;94827.69;;;17.53;52.96
6024;BME280;3040;42.654;23.296;2022-11-15T00:02:59;94822.25;;;17.49;53.23
6024;BME280;3040;42.654;23.296;2022-11-15T00:05:26;94829.25;;;17.54;52.86
6024;BME280;3040;42.654;23.296;2022-11-15T00:07:52;94777.41;;;17.23;53.24
6024;BME280;3040;42.654;23.296;2022-11-15T00:10:19;94815.38;;;17.48;53.08
6024;BME280;3040;42.654;23.296;2022-11-15T00:12:46;94826.47;;;17.46;53.15
6024;BME280;3040;42.654;23.296;2022-11-15T00:15:15;94816.84;;;17.45;53.17
6024;BME280;3040;42.654;23.296;2022-11-15T00:17:41;94820.75;;;17.48;53.31
6024;BME280;3040;42.654;23.296;2022-11-15T00:20:09;94813.75;;;17.43;52.93
6024;BME280;3040;42.654;23.296;2022-11-15T00:22:36;94806.38;;;17.37;53.40
6024;BME280;3040;42.654;23.296;2022-11-15T00:25:04;94808.38;;;17.43;53.14
6024;BME280;3040;42.654;23.296;2022-11-15T00:27:32;94802.59;;;17.41;53.00
6024;BME280;3040;42.654;23.296;2022-11-15T00:29:58;94803.31;;;17.38;53.34
6024;BME280;3040;42.654;23.296;2022-11-15T00:32:30;94803.31;;;17.38;53.74
6024;BME280;3040;42.654;23.296;2022-11-15T00:34:57;94804.47;;;17.37;53.42
6024;BME280;3040;42.654;23.296;2022-11-15T00:37:24;94797.59;;;17.40;53.17
6024;BME280;3040;42.654;23.296;2022-11-15T00:39:51;94800.63;;;17.38;53.33
6024;BME280;3040;42.654;23.296;2022-11-15T00:42:18;94796.81;;;17.39;52.95
6024;BME280;3040;42.654;23.296;2022-11-15T00:44:45;94789.88;;;17.38;52.85
6024;BME280;3040;42.654;23.296;2022-11-15T00:47:11;94794.53;;;17.41;53.77
6024;BME280;3040;42.654;23.296;2022-11-15T00:49:39;94795.31;;;17.42;53.92
6024;BME280;3040;42.654;23.296;2022-11-15T00:52:07;94804.53;;;17.44;53.64
6024;BME280;3040;42.654;23.296;2022-11-15T00:54:34;94791.53;;;17.46;53.40
6024;BME280;3040;42.654;23.296;2022-11-15T00:57:00;94784.50;;;17.38;53.18
6024;BME280;3040;42.654;23.296;2022-11-15T00:59:27;94794.56;;;17.45;53.62
6024;BME280;3040;42.654;23.296;2022-11-15T01:01:54;94779.13;;;17.38;53.32
6024;BME280;3040;42.654;23.296;2022-11-15T01:04:21;94795.00;;;17.50;53.53
6024;BME280;3040;42.654;23.296;2022-11-15T01:06:49;94791.91;;;17.48;53.48
6024;BME280;3040;42.654;23.296;2022-11-15T01:09:16;94796.84;;;17.43;53.45
6024;BME280;3040;42.654;23.296;2022-11-15T01:11:42;94790.28;;;17.40;53.48
6024;BME280;3040;42.654;23.296;2022-11-15T01:14:09;94786.84;;;17.43;53.55
6024;BME280;3040;42.654;23.296;2022-11-15T01:16:36;94794.94;;;17.43;53.45
6024;BME280;3040;42.654;23.296;2022-11-15T01:19:03;94799.16;;;17.44;53.38
6024;BME280;3040;42.654;23.296;2022-11-15T01:21:30;94788.31;;;17.37;53.93
6024;BME280;3040;42.654;23.296;2022-11-15T01:23:58;94783.38;;;17.39;53.44
6024;BME280;3040;42.654;23.296;2022-11-15T01:26:25;94786.06;;;17.39;53.73
6024;BME280;3040;42.654;23.296;2022-11-15T01:28:52;94780.25;;;17.37;53.63
6024;BME280;3040;42.654;23.296;2022-11-15T01:31:21;94776.75;;;17.33;53.36
6024;BME280;3040;42.654;23.296;2022-11-15T01:33:48;94775.63;;;17.34;53.41
6024;BME280;3040;42.654;23.296;2022-11-15T01:36:17;94776.75;;;17.33;53.64
6024;BME280;3040;42.654;23.296;2022-11-15T01:38:44;94774.50;;;17.35;53.61
6024;BME280;3040;42.654;23.296;2022-11-15T01:41:18;94775.28;;;17.39;53.67
6024;BME280;3040;42.654;23.296;2022-11-15T01:43:46;94778.75;;;17.40;53.83
6024;BME280;3040;42.654;23.296;2022-11-15T01:46:22;94777.19;;;17.35;53.84
6024;BME280;3040;42.654;23.296;2022-11-15T01:48:51;94772.56;;;17.36;54.09
6024;BME280;3040;42.654;23.296;2022-11-15T01:51:22;94780.25;;;17.37;53.61
6024;BME280;3040;42.654;23.296;2022-11-15T01:53:55;94768.38;;;17.38;53.37
6024;BME280;3040;42.654;23.296;2022-11-15T01:56:27;94770.59;;;17.33;53.43
6024;BME280;3040;42.654;23.296;2022-11-15T01:58:56;94765.59;;;17.31;53.69
6024;BME280;3040;42.654;23.296;2022-11-15T02:01:25;94775.63;;;17.34;53.50
6024;BME280;3040;42.654;23.296;2022-11-15T02:03:57;94770.56;;;17.29;53.54
6024;BME280;3040;42.654;23.296;2022-11-15T02:06:25;94769.84;;;17.32;53.42
6024;BME280;3040;42.654;23.296;2022-11-15T02:08:52;94771.34;;;17.30;53.30
6024;BME280;3040;42.654;23.296;2022-11-15T02:11:19;94767.88;;;17.29;53.55
6024;BME280;3040;42.654;23.296;2022-11-15T02:13:47;94770.97;;;17.31;53.48
6024;BME280;3040;42.654;23.296;2022-11-15T02:16:22;94765.97;;;17.30;53.52
6024;BME280;3040;42.654;23.296;2022-11-15T02:18:57;94759.00;;;17.25;53.37
6024;BME280;3040;42.654;23.296;2022-11-15T02:21:31;94766.72;;;17.30;53.40
6024;BME280;3040;42.654;23.296;2022-11-15T02:24:25;94767.88;;;17.29;53.63
6024;BME280;3040;42.654;23.296;2022-11-15T02:27:23;94764.44;;;17.29;53.69
6024;BME280;3040;42.654;23.296;2022-11-15T02:30:17;94765.22;;;17.33;53.85
6024;BME280;3040;42.654;23.296;2022-11-15T02:32:48;94765.25;;;17.36;53.63
6024;BME280;3040;42.654;23.296;2022-11-15T02:35:22;94758.75;;;17.37;53.33
6024;BME280;3040;42.654;23.296;2022-11-15T02:37:55;94763.72;;;17.35;53.76
6024;BME280;3040;42.654;23.296;2022-11-15T02:40:29;94742.81;;;17.22;53.80
6024;BME280;3040;42.654;23.296;2022-11-15T02:43:04;94761.41;;;17.34;53.28
6024;BME280;3040;42.654;23.296;2022-11-15T02:45:56;94747.50;;;17.28;53.73
6024;BME280;3040;42.654;23.296;2022-11-15T02:48:26;94758.31;;;17.32;52.88
6024;BME280;3040;42.654;23.296;2022-11-15T02:50:53;94758.28;;;17.28;53.79
6024;BME280;3040;42.654;23.296;2022-11-15T02:53:24;94756.72;;;17.27;53.95
6024;BME280;3040;42.654;23.296;2022-11-15T02:55:51;94755.22;;;17.30;54.04
6024;BME280;3040;42.654;23.296;2022-11-15T03:01:20;94763.66;;;17.28;53.69
6024;BME280;3040;42.654;23.296;2022-11-15T03:03:59;94768.97;;;17.25;53.50
6024;BME280;3040;42.654;23.296;2022-11-15T03:06:35;94760.44;;;17.19;54.02
6024;BME280;3040;42.654;23.296;2022-11-15T03:09:09;94771.28;;;17.26;54.04
6024;BME280;3040;42.654;23.296;2022-11-15T03:11:42;94772.44;;;17.25;53.84
6024;BME280;3040;42.654;23.296;2022-11-15T03:14:21;94768.25;;;17.28;53.79
6024;BME280;3040;42.654;23.296;2022-11-15T03:17:02;94755.97;;;17.30;53.79
6024;BME280;3040;42.654;23.296;2022-11-15T03:19:34;94763.66;;;17.28;54.11
6024;BME280;3040;42.654;23.296;2022-11-15T03:22:06;94756.75;;;17.31;54.30
6024;BME280;3040;42.654;23.296;2022-11-15T03:24:36;94752.97;;;17.35;53.89
6024;BME280;3040;42.654;23.296;2022-11-15T03:27:05;94739.81;;;17.27;53.88
6024;BME280;3040;42.654;23.296;2022-11-15T03:29:35;94751.78;;;17.33;54.13
6024;BME280;3040;42.654;23.296;2022-11-15T03:32:09;94762.19;;;17.34;54.02
6024;BME280;3040;42.654;23.296;2022-11-15T03:34:41;94717.69;;;17.07;53.78
6024;BME280;3040;42.654;23.296;2022-11-15T03:37:13;94749.88;;;17.33;53.99
6024;BME280;3040;42.654;23.296;2022-11-15T03:39:41;94744.09;;;17.31;53.64
6024;BME280;3040;42.654;23.296;2022-11-15T03:42:17;94742.94;;;17.32;54.06
6024;BME280;3040;42.654;23.296;2022-11-15T03:44:51;94733.31;;;17.31;53.97
6024;BME280;3040;42.654;23.296;2022-11-15T03:47:26;94734.47;;;17.30;54.17
6024;BME280;3040;42.654;23.296;2022-11-15T03:49:58;94731.38;;;17.28;54.11
6024;BME280;3040;42.654;23.296;2022-11-15T03:52:31;94732.19;;;17.32;54.24
6024;BME280;3040;42.654;23.296;2022-11-15T03:55:00;94728.38;;;17.33;53.94
6024;BME280;3040;42.654;23.296;2022-11-15T03:57:27;94723.31;;;17.28;53.89
6024;BME280;3040;42.654;23.296;2022-11-15T03:59:54;94725.22;;;17.28;54.27
6024;BME280;3040;42.654;23.296;2022-11-15T04:02:22;94716.75;;;17.26;53.94
6024;BME280;3040;42.654;23.296;2022-11-15T04:04:49;94724.53;;;17.34;53.97
6024;BME280;3040;42.654;23.296;2022-11-15T04:07:16;94731.09;;;17.37;54.22
6024;BME280;3040;42.654;23.296;2022-11-15T04:09:43;94700.09;;;17.13;54.16
6024;BME280;3040;42.654;23.296;2022-11-15T04:12:27;94720.63;;;17.28;54.09
6024;BME280;3040;42.654;23.296;2022-11-15T04:15:01;94722.25;;;17.36;54.25
6024;BME280;3040;42.654;23.296;2022-11-15T04:17:40;94716.16;;;17.39;54.09
6024;BME280;3040;42.654;23.296;2022-11-15T04:20:10;94657.41;;;17.04;54.10
6024;BME280;3040;42.654;23.296;2022-11-15T04:22:56;94684.34;;;17.12;54.30
6024;BME280;3040;42.654;23.296;2022-11-15T04:25:41;94702.19;;;17.27;54.03
6024;BME280;3040;42.654;23.296;2022-11-15T04:28:09;94717.63;;;17.33;54.21
6024;BME280;3040;42.654;23.296;2022-11-15T04:30:36;94715.25;;;17.28;53.99
6024;BME280;3040;42.654;23.296;2022-11-15T04:33:04;94685.88;;;17.13;54.26
6024;BME280;3040;42.654;23.296;2022-11-15T04:35:30;94716.06;;;17.32;54.24
6024;BME280;3040;42.654;23.296;2022-11-15T04:37:58;94711.44;;;17.29;54.29
6024;BME280;3040;42.654;23.296;2022-11-15T04:40:24;94717.94;;;17.28;54.35
6024;BME280;3040;42.654;23.296;2022-11-15T04:42:50;94715.66;;;17.30;54.20
6024;BME280;3040;42.654;23.296;2022-11-15T04:45:17;94715.28;;;17.32;54.32
6024;BME280;3040;42.654;23.296;2022-11-15T04:47:44;94716.03;;;17.29;53.94
6024;BME280;3040;42.654;23.296;2022-11-15T04:50:13;94716.81;;;17.29;53.99
6024;BME280;3040;42.654;23.296;2022-11-15T04:52:41;94726.00;;;17.28;54.31
6024;BME280;3040;42.654;23.296;2022-11-15T04:55:09;94709.78;;;17.21;54.38
6024;BME280;3040;42.654;23.296;2022-11-15T04:57:36;94709.88;;;17.28;54.52
6024;BME280;3040;42.654;23.296;2022-11-15T05:00:05;94727.16;;;17.31;54.18
6024;BME280;3040;42.654;23.296;2022-11-15T05:02:32;94724.13;;;17.32;54.22
6024;BME280;3040;42.654;23.296;2022-11-15T05:05:14;94728.34;;;17.30;54.50
6024;BME280;3040;42.654;23.296;2022-11-15T05:07:41;94718.34;;;17.30;54.27
6024;BME280;3040;42.654;23.296;2022-11-15T05:10:08;94716.06;;;17.32;54.03
6024;BME280;3040;42.654;23.296;2022-11-15T05:12:35;94727.56;;;17.29;53.98
6024;BME280;3040;42.654;23.296;2022-11-15T05:15:03;94732.53;;;17.27;54.28
6024;BME280;3040;42.654;23.296;2022-11-15T05:17:30;94726.38;;;17.27;54.53
6024;BME280;3040;42.654;23.296;2022-11-15T05:19:56;94719.84;;;17.28;54.03
6024;BME280;3040;42.654;23.296;2022-11-15T05:22:24;94719.09;;;17.27;54.14
6024;BME280;3040;42.654;23.296;2022-11-15T05:24:51;94726.00;;;17.28;54.25
6024;BME280;3040;42.654;23.296;2022-11-15T05:27:18;94714.47;;;17.28;54.32
6024;BME280;3040;42.654;23.296;2022-11-15T05:29:45;94721.78;;;17.27;54.46
6024;BME280;3040;42.654;23.296;2022-11-15T05:32:12;94712.91;;;17.23;54.40
6024;BME280;3040;42.654;23.296;2022-11-15T05:34:40;94710.22;;;17.23;54.87
6024;BME280;3040;42.654;23.296;2022-11-15T05:37:07;94711.72;;;17.24;54.36
6024;BME280;3040;42.654;23.296;2022-11-15T05:39:35;94715.97;;;17.25;54.40
6024;BME280;3040;42.654;23.296;2022-11-15T05:42:06;94712.16;;;17.26;54.03
6024;BME280;3040;42.654;23.296;2022-11-15T05:44:36;94713.69;;;17.27;54.24
6024;BME280;3040;42.654;23.296;2022-11-15T05:47:06;94720.63;;;17.28;54.78
6024;BME280;3040;42.654;23.296;2022-11-15T05:49:37;94714.50;;;17.31;54.86
6024;BME280;3040;42.654;23.296;2022-11-15T05:52:07;94671.19;;;17.03;54.75
6024;BME280;3040;42.654;23.296;2022-11-15T05:54:38;94716.88;;;17.36;55.19
6024;BME280;3040;42.654;23.296;2022-11-15T05:57:06;94718.41;;;17.37;55.31
6024;BME280;3040;42.654;23.296;2022-11-15T05:59:33;94719.19;;;17.38;55.81
6024;BME280;3040;42.654;23.296;2022-11-15T06:02:01;94719.28;;;17.48;58.22
6024;BME280;3040;42.654;23.296;2022-11-15T06:04:28;94728.44;;;17.40;56.53
6024;BME280;3040;42.654;23.296;2022-11-15T06:06:54;94718.84;;;17.39;56.50
6024;BME280;3040;42.654;23.296;2022-11-15T06:09:21;94733.91;;;17.47;57.58
6024;BME280;3040;42.654;23.296;2022-11-15T06:11:49;94726.28;;;17.53;56.02
6024;BME280;3040;42.654;23.296;2022-11-15T06:14:16;94721.19;;;17.44;56.15
6024;BME280;3040;42.654;23.296;2022-11-15T06:16:43;94728.53;;;17.47;55.97
6024;BME280;3040;42.654;23.296;2022-11-15T06:19:10;94735.44;;;17.48;56.08
6024;BME280;3040;42.654;23.296;2022-11-15T06:21:37;94738.19;;;17.52;55.92
6024;BME280;3040;42.654;23.296;2022-11-15T06:24:05;94721.59;;;17.46;56.10
6024;BME280;3040;42.654;23.296;2022-11-15T06:26:32;94729.00;;;17.57;56.16
6024;BME280;3040;42.654;23.296;2022-11-15T06:29:02;94725.59;;;17.60;56.04
6024;BME280;3040;42.654;23.296;2022-11-15T06:31:29;94730.97;;;17.60;55.91
6024;BME280;3040;42.654;23.296;2022-11-15T06:33:56;94717.16;;;17.61;55.74
6024;BME280;3040;42.654;23.296;2022-11-15T06:36:22;94719.47;;;17.63;55.62
6024;BME280;3040;42.654;23.296;2022-11-15T06:38:49;94717.09;;;17.58;55.94
6024;BME280;3040;42.654;23.296;2022-11-15T06:41:16;94722.47;;;17.58;55.79
6024;BME280;3040;42.654;23.296;2022-11-15T06:43:43;94720.19;;;17.60;56.00
6024;BME280;3040;42.654;23.296;2022-11-15T06:46:11;94718.66;;;17.59;55.91
6024;BME280;3040;42.654;23.296;2022-11-15T06:48:39;94717.94;;;17.62;55.29
6024;BME280;3040;42.654;23.296;2022-11-15T06:51:06;94716.38;;;17.61;55.70
6024;BME280;3040;42.654;23.296;2022-11-15T06:53:33;94725.59;;;17.60;56.08
6024;BME280;3040;42.654;23.296;2022-11-15T06:56:01;94718.59;;;17.55;56.10
6024;BME280;3040;42.654;23.296;2022-11-15T06:58:28;94724.75;;;17.56;56.00
6024;BME280;3040;42.654;23.296;2022-11-15T07:00:58;94710.16;;;17.53;55.77
6024;BME280;3040;42.654;23.296;2022-11-15T07:03:27;94717.94;;;17.62;55.90
6024;BME280;3040;42.654;23.296;2022-11-15T07:05:55;94715.59;;;17.60;56.06
6024;BME280;3040;42.654;23.296;2022-11-15T07:08:22;94716.44;;;17.64;55.78
6024;BME280;3040;42.654;23.296;2022-11-15T07:10:50;94706.41;;;17.61;55.92
6024;BME280;3040;42.654;23.296;2022-11-15T07:13:17;94658.44;;;17.30;55.75
6024;BME280;3040;42.654;23.296;2022-11-15T07:15:44;94711.81;;;17.65;55.79
6024;BME280;3040;42.654;23.296;2022-11-15T07:18:11;94704.91;;;17.64;55.50
6024;BME280;3040;42.654;23.296;2022-11-15T07:20:39;94711.81;;;17.65;55.74
6024;BME280;3040;42.654;23.296;2022-11-15T07:23:06;94713.38;;;17.66;55.42
6024;BME280;3040;42.654;23.296;2022-11-15T07:25:33;94713.38;;;17.66;55.82
6024;BME280;3040;42.654;23.296;2022-11-15T07:28:00;94714.09;;;17.63;55.43
6024;BME280;3040;42.654;23.296;2022-11-15T07:30:27;94710.63;;;17.62;55.38
6024;BME280;3040;42.654;23.296;2022-11-15T07:32:55;94713.31;;;17.62;55.86
6024;BME280;3040;42.654;23.296;2022-11-15T07:35:22;94705.53;;;17.54;55.99
6024;BME280;3040;42.654;23.296;2022-11-15T07:37:58;94722.88;;;17.60;55.42
6024;BME280;3040;42.654;23.296;2022-11-15T07:40:25;94718.69;;;17.62;55.88
6024;BME280;3040;42.654;23.296;2022-11-15T07:42:52;94719.47;;;17.63;55.98
6024;BME280;3040;42.654;23.296;2022-11-15T07:45:24;94707.16;;;17.62;56.12
6024;BME280;3040;42.654;23.296;2022-11-15T07:47:52;94710.28;;;17.64;55.79
6024;BME280;3040;42.654;23.296;2022-11-15T07:50:19;94717.19;;;17.65;55.92
6024;BME280;3040;42.654;23.296;2022-11-15T07:52:46;94713.03;;;17.71;56.02
6024;BME280;3040;42.654;23.296;2022-11-15T07:55:15;94703.88;;;17.79;56.06
6024;BME280;3040;42.654;23.296;2022-11-15T07:57:41;94705.13;;;17.88;56.10
6024;BME280;3040;42.654;23.296;2022-11-15T08:00:09;94713.97;;;17.89;55.66
6024;BME280;3040;42.654;23.296;2022-11-15T08:02:36;94717.44;;;17.93;55.94
6024;BME280;3040;42.654;23.296;2022-11-15T08:05:03;94710.53;;;17.92;56.04
6024;BME280;3040;42.654;23.296;2022-11-15T08:07:31;94705.56;;;17.94;56.89
6024;BME280;3040;42.654;23.296;2022-11-15T08:09:58;94691.09;;;17.65;58.79
6024;BME280;3040;42.654;23.296;2022-11-15T08:12:28;94712.75;;;17.83;59.42
6024;BME280;3040;42.654;23.296;2022-11-15T08:14:55;94708.19;;;17.90;60.48
6024;BME280;3040;42.654;23.296;2022-11-15T08:17:22;94707.91;;;17.99;62.09
6024;BME280;3040;42.654;23.296;2022-11-15T08:19:49;94697.13;;;17.99;61.94
6024;BME280;3040;42.654;23.296;2022-11-15T08:22:17;94701.75;;;17.99;61.89
6024;BME280;3040;42.654;23.296;2022-11-15T08:24:44;94699.13;;;18.09;61.85
6024;BME280;3040;42.654;23.296;2022-11-15T08:27:11;94693.00;;;18.12;61.08
6024;BME280;3040;42.654;23.296;2022-11-15T08:29:44;94707.59;;;18.08;61.82
6024;BME280;3040;42.654;23.296;2022-11-15T08:32:11;94701.09;;;18.12;60.63
6024;BME280;3040;42.654;23.296;2022-11-15T08:34:38;94695.75;;;18.19;59.59
6024;BME280;3040;42.654;23.296;2022-11-15T08:37:05;94696.97;;;18.25;58.83
6024;BME280;3040;42.654;23.296;2022-11-15T08:39:32;94694.63;;;18.24;58.51
6024;BME280;3040;42.654;23.296;2022-11-15T08:41:59;94690.75;;;18.21;58.33
6024;BME280;3040;42.654;23.296;2022-11-15T08:44:26;94683.13;;;18.30;57.58
6024;BME280;3040;42.654;23.296;2022-11-15T08:46:54;94655.31;;;18.12;57.13
6024;BME280;3040;42.654;23.296;2022-11-15T08:49:21;94690.84;;;18.36;56.74
6024;BME280;3040;42.654;23.296;2022-11-15T08:51:48;94687.84;;;18.48;57.21
6024;BME280;3040;42.654;23.296;2022-11-15T08:54:15;94671.81;;;18.62;56.49
6024;BME280;3040;42.654;23.296;2022-11-15T08:56:42;94676.47;;;18.72;55.77
6024;BME280;3040;42.654;23.296;2022-11-15T08:59:09;94632.41;;;18.40;55.66
6024;BME280;3040;42.654;23.296;2022-11-15T09:01:35;94668.81;;;18.74;56.95
6024;BME280;3040;42.654;23.296;2022-11-15T09:04:04;94661.84;;;18.73;56.21
6024;BME280;3040;42.654;23.296;2022-11-15T09:06:31;94662.66;;;18.81;56.38
6024;BME280;3040;42.654;23.296;2022-11-15T09:08:57;94656.88;;;18.79;56.38
6024;BME280;3040;42.654;23.296;2022-11-15T09:11:24;94652.63;;;18.81;55.24
6024;BME280;3040;42.654;23.296;2022-11-15T09:13:52;94651.91;;;18.84;54.79
6024;BME280;3040;42.654;23.296;2022-11-15T09:16:19;94656.88;;;18.82;55.26
6024;BME280;3040;42.654;23.296;2022-11-15T09:18:46;94550.75;;;18.14;55.56
6024;BME280;3040;42.654;23.296;2022-11-15T09:21:15;94646.09;;;18.82;55.44
6024;BME280;3040;42.654;23.296;2022-11-15T09:23:41;94643.81;;;18.84;54.66
6024;BME280;3040;42.654;23.296;2022-11-15T09:26:08;94644.97;;;18.83;54.41
6024;BME280;3040;42.654;23.296;2022-11-15T09:28:35;94632.63;;;18.82;54.02
6024;BME280;3040;42.654;23.296;2022-11-15T09:31:05;94637.28;;;18.85;54.35
6024;BME280;3040;42.654;23.296;2022-11-15T09:33:32;94638.41;;;18.88;54.01
6024;BME280;3040;42.654;23.296;2022-11-15T09:36:03;94588.69;;;18.64;53.51
6024;BME280;3040;42.654;23.296;2022-11-15T09:38:33;94623.44;;;18.90;53.19
6024;BME280;3040;42.654;23.296;2022-11-15T09:41:17;94621.13;;;18.92;53.65
6024;BME280;3040;42.654;23.296;2022-11-15T09:43:53;94620.72;;;18.94;53.40
6024;BME280;3040;42.654;23.296;2022-11-15T09:46:28;94622.22;;;18.81;56.65
6024;BME280;3040;42.654;23.296;2022-11-15T09:48:59;94616.38;;;18.64;56.85
6024;BME280;3040;42.654;23.296;2022-11-15T09:51:30;94606.38;;;18.65;56.53
6024;BME280;3040;42.654;23.296;2022-11-15T09:54:11;94608.69;;;18.63;57.62
6024;BME280;3040;42.654;23.296;2022-11-15T09:56:44;94600.97;;;18.58;56.62
6024;BME280;3040;42.654;23.296;2022-11-15T09:59:25;94603.28;;;18.63;57.38
6024;BME280;3040;42.654;23.296;2022-11-15T10:01:58;94599.81;;;18.55;56.32
6024;BME280;3040;42.654;23.296;2022-11-15T10:04:27;94590.19;;;18.58;56.96
6024;BME280;3040;42.654;23.296;2022-11-15T10:07:00;94545.41;;;18.28;56.18
6024;BME280;3040;42.654;23.296;2022-11-15T10:09:35;94582.50;;;18.60;56.59
6024;BME280;3040;42.654;23.296;2022-11-15T10:12:06;94584.44;;;18.63;57.06
6024;BME280;3040;42.654;23.296;2022-11-15T10:14:35;94568.59;;;18.54;56.46
6024;BME280;3040;42.654;23.296;2022-11-15T10:17:33;94569.81;;;18.60;56.84
6024;BME280;3040;42.654;23.296;2022-11-15T10:20:12;94568.28;;;18.63;56.77
6024;BME280;3040;42.654;23.296;2022-11-15T10:22:46;94567.16;;;18.71;56.82
6024;BME280;3040;42.654;23.296;2022-11-15T10:25:20;94567.19;;;18.78;57.01
6024;BME280;3040;42.654;23.296;2022-11-15T10:27:53;94564.88;;;18.84;56.17
6024;BME280;3040;42.654;23.296;2022-11-15T10:30:21;94556.81;;;18.80;56.23
6024;BME280;3040;42.654;23.296;2022-11-15T10:32:48;94554.13;;;18.94;56.43
6024;BME280;3040;42.654;23.296;2022-11-15T10:35:18;94549.16;;;19.03;55.62
6024;BME280;3040;42.654;23.296;2022-11-15T10:37:45;94536.44;;;19.11;55.44
6024;BME280;3040;42.654;23.296;2022-11-15T10:40:18;94541.84;;;19.15;55.46
6024;BME280;3040;42.654;23.296;2022-11-15T10:42:46;94538.00;;;19.30;54.42
6024;BME280;3040;42.654;23.296;2022-11-15T10:45:27;94524.53;;;19.40;54.38
6024;BME280;3040;42.654;23.296;2022-11-15T10:48:22;94516.44;;;19.58;53.93
6024;BME280;3040;42.654;23.296;2022-11-15T10:50:51;94518.72;;;19.77;53.30
6024;BME280;3040;42.654;23.296;2022-11-15T10:53:23;94507.91;;;19.84;53.27
6024;BME280;3040;42.654;23.296;2022-11-15T10:55:55;94515.59;;;20.04;52.89
6024;BME280;3040;42.654;23.296;2022-11-15T10:58:32;94508.59;;;20.17;52.55
6024;BME280;3040;42.654;23.296;2022-11-15T11:01:09;94517.81;;;20.30;52.08
6024;BME280;3040;42.654;23.296;2022-11-15T11:03:38;94503.13;;;20.38;52.22
6024;BME280;3040;42.654;23.296;2022-11-15T11:06:11;94490.38;;;20.49;51.38
6024;BME280;3040;42.654;23.296;2022-11-15T11:08:52;94475.28;;;20.52;51.44
6024;BME280;3040;42.654;23.296;2022-11-15T11:11:22;94494.16;;;20.62;51.06
6024;BME280;3040;42.654;23.296;2022-11-15T11:13:49;94489.94;;;20.61;51.29
6024;BME280;3040;42.654;23.296;2022-11-15T11:16:23;94489.88;;;20.68;51.40
6024;BME280;3040;42.654;23.296;2022-11-15T11:18:59;94486.78;;;20.70;50.77
6024;BME280;3040;42.654;23.296;2022-11-15T11:21:39;94468.66;;;20.63;50.93
6024;BME280;3040;42.654;23.296;2022-11-15T11:24:14;94477.47;;;20.75;50.97
6024;BME280;3040;42.654;23.296;2022-11-15T11:26:59;94458.94;;;20.77;50.95
6024;BME280;3040;42.654;23.296;2022-11-15T11:29:44;94456.59;;;20.82;51.09
6024;BME280;3040;42.654;23.296;2022-11-15T11:32:27;94455.03;;;20.85;50.97
6024;BME280;3040;42.654;23.296;2022-11-15T11:35:02;94446.50;;;20.86;51.15
6024;BME280;3040;42.654;23.296;2022-11-15T11:37:39;94432.22;;;20.89;51.13
6024;BME280;3040;42.654;23.296;2022-11-15T11:40:16;94421.78;;;20.88;50.81
6024;BME280;3040;42.654;23.296;2022-11-15T11:42:53;94425.59;;;20.94;51.68
6024;BME280;3040;42.654;23.296;2022-11-15T11:45:41;94424.41;;;20.98;50.68
6024;BME280;3040;42.654;23.296;2022-11-15T11:48:13;94424.00;;;21.00;50.37
6024;BME280;3040;42.654;23.296;2022-11-15T11:50:42;94418.59;;;21.03;50.28
6024;BME280;3040;42.654;23.296;2022-11-15T11:53:13;94412.41;;;20.99;50.65
6024;BME280;3040;42.654;23.296;2022-11-15T11:55:44;94360.22;;;20.61;50.56
6024;BME280;3040;42.654;23.296;2022-11-15T11:58:17;94403.53;;;20.99;50.65
6024;BME280;3040;42.654;23.296;2022-11-15T12:00:50;94402.25;;;21.14;50.33
6024;BME280;3040;42.654;23.296;2022-11-15T12:03:24;94392.22;;;21.15;50.00
6024;BME280;3040;42.654;23.296;2022-11-15T12:05:57;94389.19;;;21.09;49.93
6024;BME280;3040;42.654;23.296;2022-11-15T12:08:32;94374.50;;;21.06;50.15
6024;BME280;3040;42.654;23.296;2022-11-15T12:11:12;94380.25;;;21.12;50.29
6024;BME280;3040;42.654;23.296;2022-11-15T12:13:43;94382.56;;;21.13;49.96
6024;BME280;3040;42.654;23.296;2022-11-15T12:16:16;94382.16;;;21.19;49.94
6024;BME280;3040;42.654;23.296;2022-11-15T12:18:47;94366.69;;;21.19;50.06
6024;BME280;3040;42.654;23.296;2022-11-15T12:21:17;94362.78;;;21.24;49.80
6024;BME280;3040;42.654;23.296;2022-11-15T12:23:49;94356.59;;;21.23;49.90
6024;BME280;3040;42.654;23.296;2022-11-15T12:26:22;94359.59;;;21.32;49.86
6024;BME280;3040;42.654;23.296;2022-11-15T12:28:55;94359.59;;;21.32;49.79
6024;BME280;3040;42.654;23.296;2022-11-15T12:31:29;94361.06;;;21.40;49.64
6024;BME280;3040;42.654;23.296;2022-11-15T12:34:01;94354.03;;;21.46;49.64
6024;BME280;3040;42.654;23.296;2022-11-15T12:36:35;94354.09;;;21.43;49.70
6024;BME280;3040;42.654;23.296;2022-11-15T12:39:04;94349.56;;;21.33;49.87
6024;BME280;3040;42.654;23.296;2022-11-15T12:41:32;94329.69;;;21.09;50.44
6024;BME280;3040;42.654;23.296;2022-11-15T12:44:01;94331.69;;;20.98;50.81
6024;BME280;3040;42.654;23.296;2022-11-15T12:47:01;94339.06;;;20.94;51.35
6024;BME280;3040;42.654;23.296;2022-11-15T12:49:43;94335.66;;;20.90;51.53
6024;BME280;3040;42.654;23.296;2022-11-15T12:52:10;94332.91;;;20.93;51.51
6024;BME280;3040;42.654;23.296;2022-11-15T12:54:59;94328.31;;;20.87;51.64
6024;BME280;3040;42.654;23.296;2022-11-15T12:57:42;94336.13;;;20.78;51.89
6024;BME280;3040;42.654;23.296;2022-11-15T13:03:27;94333.19;;;20.61;52.53
6024;BME280;3040;42.654;23.296;2022-11-15T13:06:08;94328.56;;;20.58;52.71
6024;BME280;3040;42.654;23.296;2022-11-15T13:08:45;94328.56;;;20.58;52.49
6024;BME280;3040;42.654;23.296;2022-11-15T13:11:45;94321.66;;;20.54;52.91
6024;BME280;3040;42.654;23.296;2022-11-15T13:14:44;94321.28;;;20.55;52.81
6024;BME280;3040;42.654;23.296;2022-11-15T13:17:38;94324.03;;;20.48;52.79
6024;BME280;3040;42.654;23.296;2022-11-15T13:20:22;94307.81;;;20.45;53.04
6024;BME280;3040;42.654;23.296;2022-11-15T13:22:50;94318.66;;;20.41;53.00
6024;BME280;3040;42.654;23.296;2022-11-15T13:25:27;94313.63;;;20.43;52.96
6024;BME280;3040;42.654;23.296;2022-11-15T13:27:57;94304.00;;;20.42;53.07
6024;BME280;3040;42.654;23.296;2022-11-15T13:30:26;94297.09;;;20.34;53.44
6024;BME280;3040;42.654;23.296;2022-11-15T13:32:53;94308.69;;;20.31;53.46
6024;BME280;3040;42.654;23.296;2022-11-15T13:35:24;94312.53;;;20.30;53.51